createdAt,value
2023-03-26T00:01:37.481Z,7.30
2023-03-26T00:04:05.779Z,6.40
2023-03-26T00:07:12.669Z,7.65
2023-03-26T00:15:19.593Z,7.75
2023-03-26T00:17:50.501Z,6.40
2023-03-26T00:20:18.677Z,6.18
2023-03-26T00:22:45.461Z,5.97
2023-03-26T00:25:50.899Z,8.93
2023-03-26T00:36:28.606Z,6.07
2023-03-26T00:38:55.835Z,6.05
2023-03-26T00:41:26.291Z,6.90
2023-03-26T00:43:58.824Z,6.60
2023-03-26T00:49:04.055Z,6.95
2023-03-26T00:52:59.599Z,5.60
2023-03-26T00:55:25.810Z,8.93
2023-03-26T00:58:05.334Z,7.60
2023-03-26T01:00:39.345Z,5.35
2023-03-26T01:03:07.641Z,9.63
2023-03-26T01:09:17.601Z,4.80
2023-03-26T01:12:43.284Z,6.05
2023-03-26T01:24:34.204Z,8.68
2023-03-26T01:28:08.543Z,4.53
2023-03-26T01:35:38.836Z,4.50
2023-03-26T01:41:31.254Z,5.00
2023-03-26T01:48:14.093Z,5.07
2023-03-26T01:50:48.664Z,5.55
2023-03-26T01:53:15.757Z,5.78
2023-03-26T01:59:07.730Z,4.03
2023-03-26T02:05:19.416Z,9.13
2023-03-26T02:07:53.935Z,5.07
2023-03-26T02:10:44.512Z,3.90
2023-03-26T02:13:29.645Z,4.30
2023-03-26T02:16:01.851Z,4.93
2023-03-26T02:21:33.938Z,4.43
2023-03-26T02:24:03.921Z,4.85
2023-03-26T02:26:33.635Z,3.70
2023-03-26T02:29:01.753Z,4.20
2023-03-26T02:31:30.212Z,4.82
2023-03-26T02:33:57.325Z,4.32
2023-03-26T02:36:27.267Z,3.78
2023-03-26T02:38:55.726Z,4.50
2023-03-26T02:41:22.622Z,5.20
2023-03-26T02:44:27.376Z,5.95
2023-03-26T02:46:54.260Z,4.65
2023-03-26T02:49:34.328Z,4.78
2023-03-26T02:52:01.704Z,5.15
2023-03-26T02:54:56.202Z,3.75
2023-03-26T02:57:26.106Z,5.03
2023-03-26T02:59:55.741Z,5.53
2023-03-26T03:02:24.291Z,4.35
2023-03-26T03:05:01.304Z,4.70
2023-03-26T03:07:28.968Z,3.92
2023-03-26T03:10:21.945Z,4.82
2023-03-26T03:12:48.654Z,4.40
2023-03-26T03:15:15.398Z,5.07
2023-03-26T03:17:48.300Z,4.55
2023-03-26T03:20:15.550Z,4.70
2023-03-26T03:22:55.905Z,3.85
2023-03-26T03:25:23.339Z,5.28
2023-03-26T03:27:50.551Z,4.70
2023-03-26T03:30:17.233Z,4.18
2023-03-26T03:32:43.935Z,3.38
2023-03-26T03:35:18.447Z,3.38
2023-03-26T03:37:45.340Z,6.03
2023-03-26T03:40:37.880Z,4.85
2023-03-26T03:43:04.718Z,4.10
2023-03-26T03:49:05.787Z,7.88
2023-03-26T03:51:32.651Z,4.43
2023-03-26T03:53:59.373Z,7.80
2023-03-26T03:56:26.142Z,5.55
2023-03-26T03:58:52.970Z,4.55
2023-03-26T04:01:22.653Z,5.18
2023-03-26T04:03:49.671Z,5.88
2023-03-26T04:06:19.509Z,4.65
2023-03-26T04:12:17.294Z,4.25
2023-03-26T04:14:44.077Z,3.92
2023-03-26T04:17:13.444Z,4.93
2023-03-26T04:19:40.798Z,3.55
2023-03-26T04:22:07.600Z,3.63
2023-03-26T04:24:42.319Z,4.68
2023-03-26T04:27:18.916Z,4.03
2023-03-26T04:30:07.371Z,4.45
2023-03-26T04:32:35.346Z,4.55
2023-03-26T04:35:06.687Z,4.43
2023-03-26T04:37:39.832Z,4.50
2023-03-26T04:40:15.247Z,4.00
2023-03-26T04:42:48.291Z,4.65
2023-03-26T04:45:17.621Z,5.15
2023-03-26T04:47:46.438Z,5.93
2023-03-26T04:50:13.656Z,4.07
2023-03-26T04:57:04.162Z,4.22
2023-03-26T04:59:34.964Z,5.93
2023-03-26T05:02:12.980Z,5.07
2023-03-26T05:04:39.987Z,5.43
2023-03-26T05:07:07.385Z,4.63
2023-03-26T05:09:34.123Z,4.97
2023-03-26T05:12:01.100Z,3.38
2023-03-26T05:14:27.840Z,4.45
2023-03-26T05:16:58.145Z,3.58
2023-03-26T05:19:25.014Z,4.00
2023-03-26T05:21:51.822Z,4.28
2023-03-26T05:24:24.828Z,5.55
2023-03-26T05:27:42.322Z,4.35
2023-03-26T05:30:10.821Z,5.53
2023-03-26T05:32:38.104Z,4.93
2023-03-26T05:35:23.235Z,4.78
2023-03-26T05:37:51.448Z,4.90
2023-03-26T05:40:49.749Z,3.97
2023-03-26T05:43:16.406Z,5.68
2023-03-26T05:45:43.231Z,3.72
2023-03-26T05:51:57.753Z,3.90
2023-03-26T05:54:53.836Z,4.90
2023-03-26T05:57:22.332Z,5.63
2023-03-26T05:59:49.019Z,4.65
2023-03-26T06:04:45.959Z,4.57
2023-03-26T06:07:12.943Z,4.82
2023-03-26T06:10:32.298Z,3.83
2023-03-26T06:12:59.192Z,3.97
2023-03-26T06:15:26.102Z,3.38
2023-03-26T06:17:56.029Z,3.67
2023-03-26T06:20:22.742Z,5.05
2023-03-26T06:22:49.454Z,4.93
2023-03-26T06:25:16.157Z,4.15
2023-03-26T06:27:45.987Z,4.28
2023-03-26T06:30:13.402Z,4.30
2023-03-26T06:33:39.216Z,4.18
2023-03-26T06:36:26.498Z,4.30
2023-03-26T06:38:53.198Z,4.18
2023-03-26T06:41:23.992Z,4.32
2023-03-26T06:43:51.076Z,3.72
2023-03-26T06:50:00.577Z,3.70
2023-03-26T06:52:28.558Z,4.32
2023-03-26T06:55:15.835Z,4.38
2023-03-26T06:57:45.288Z,4.25
2023-03-26T07:00:13.507Z,3.33
2023-03-26T07:05:17.420Z,3.67
2023-03-26T07:07:46.592Z,3.78
2023-03-26T07:10:14.252Z,5.32
2023-03-26T07:12:42.560Z,4.13
2023-03-26T07:18:00.338Z,3.95
2023-03-26T07:20:27.286Z,3.17
2023-03-26T07:22:54.233Z,3.88
2023-03-26T07:25:21.267Z,5.68
2023-03-26T07:28:13.544Z,4.72
2023-03-26T07:30:59.257Z,4.82
2023-03-26T07:33:44.246Z,4.25
2023-03-26T07:40:28.100Z,4.63
2023-03-26T07:43:13.438Z,3.75
2023-03-26T07:48:42.701Z,3.80
2023-03-26T07:53:41.210Z,4.93
2023-03-26T07:56:34.787Z,4.72
2023-03-26T08:05:20.266Z,7.15
2023-03-26T08:07:50.751Z,3.67
2023-03-26T08:13:35.811Z,4.93
2023-03-26T08:16:14.100Z,5.47
2023-03-26T08:19:27.651Z,4.25
2023-03-26T08:21:59.843Z,5.18
2023-03-26T08:27:15.431Z,4.18
2023-03-26T08:29:51.522Z,5.18
2023-03-26T08:32:19.556Z,3.83
2023-03-26T08:34:46.484Z,6.60
2023-03-26T08:37:13.374Z,3.50
2023-03-26T08:39:41.906Z,4.03
2023-03-26T08:42:34.310Z,4.80
2023-03-26T08:45:51.323Z,4.13
2023-03-26T08:48:46.164Z,4.88
2023-03-26T08:51:34.191Z,5.72
2023-03-26T08:54:10.043Z,4.85
2023-03-26T08:57:13.916Z,4.53
2023-03-26T09:03:36.041Z,4.68
2023-03-26T09:06:40.841Z,4.57
2023-03-26T09:09:23.892Z,4.45
2023-03-26T09:12:25.533Z,3.45
2023-03-26T09:15:04.387Z,4.45
2023-03-26T09:18:08.393Z,3.72
2023-03-26T09:23:22.326Z,4.15
2023-03-26T09:26:07.893Z,6.00
2023-03-26T09:29:12.377Z,5.53
2023-03-26T09:32:09.345Z,3.53
2023-03-26T09:35:26.673Z,5.07
2023-03-26T09:38:06.140Z,3.13
2023-03-26T09:41:06.982Z,3.53
2023-03-26T09:44:17.680Z,3.50
2023-03-26T09:50:54.044Z,3.92
2023-03-26T09:53:44.621Z,3.47
2023-03-26T09:56:30.015Z,3.55
2023-03-26T09:59:00.298Z,5.13
2023-03-26T10:01:58.074Z,4.60
2023-03-26T10:04:43.347Z,4.03
2023-03-26T10:07:13.136Z,3.45
2023-03-26T10:09:58.729Z,5.43
2023-03-26T10:12:41.866Z,3.65
2023-03-26T10:15:47.967Z,3.75
2023-03-26T10:19:04.405Z,4.85
2023-03-26T10:21:37.625Z,5.05
2023-03-26T10:24:14.922Z,4.82
2023-03-26T10:27:09.884Z,6.30
2023-03-26T10:30:07.746Z,5.93
2023-03-26T10:32:54.024Z,4.45
2023-03-26T10:43:30.125Z,9.40
2023-03-26T10:46:18.093Z,8.30
2023-03-26T10:48:50.935Z,4.95
2023-03-26T10:51:34.557Z,8.38
2023-03-26T10:54:22.672Z,6.72
2023-03-26T10:56:51.075Z,14.38
2023-03-26T10:59:19.133Z,9.95
2023-03-26T11:02:17.982Z,14.48
2023-03-26T11:05:22.958Z,9.45
2023-03-26T11:08:18.261Z,8.23
2023-03-26T11:14:31.704Z,5.55
2023-03-26T11:17:39.600Z,6.47
2023-03-26T11:20:30.301Z,5.68
2023-03-26T11:23:22.799Z,4.47
2023-03-26T11:25:52.723Z,6.10
2023-03-26T11:29:03.756Z,5.20
2023-03-26T11:31:57.264Z,7.85
2023-03-26T11:34:33.931Z,4.80
2023-03-26T11:37:04.851Z,5.75
2023-03-26T11:39:42.648Z,6.15
2023-03-26T11:42:15.945Z,11.73
2023-03-26T11:44:55.682Z,6.00
2023-03-26T11:47:31.353Z,6.85
2023-03-26T11:50:00.621Z,7.38
2023-03-26T11:52:27.582Z,4.00
2023-03-26T12:02:02.173Z,6.30
2023-03-26T12:04:41.095Z,5.53
2023-03-26T12:07:19.626Z,5.25
2023-03-26T12:12:21.936Z,7.68
2023-03-26T12:16:04.632Z,4.78
2023-03-26T12:18:32.098Z,5.70
2023-03-26T12:24:18.512Z,6.18
2023-03-26T12:27:51.759Z,6.50
2023-03-26T12:33:03.917Z,4.85
2023-03-26T12:35:35.075Z,5.38
2023-03-26T12:43:01.491Z,5.85
2023-03-26T12:44:58.950Z,5.10
2023-03-26T12:48:00.516Z,6.45
2023-03-26T12:50:54.742Z,4.43
2023-03-26T12:53:40.775Z,6.10
2023-03-26T13:03:41.976Z,6.78
2023-03-26T13:07:01.681Z,4.72
2023-03-26T13:12:26.698Z,6.35
2023-03-26T13:15:15.526Z,6.13
2023-03-26T13:18:21.399Z,4.88
2023-03-26T13:20:55.514Z,9.85
2023-03-26T13:23:34.701Z,3.70
2023-03-26T13:29:25.767Z,4.43
2023-03-26T13:35:49.968Z,4.90
2023-03-26T13:38:18.245Z,5.18
2023-03-26T13:41:06.594Z,4.07
2023-03-26T13:43:53.008Z,10.45
2023-03-26T13:46:30.477Z,6.47
2023-03-26T13:49:15.509Z,5.85
2023-03-26T13:52:08.150Z,4.78
2023-03-26T13:54:47.485Z,9.85
2023-03-26T13:57:26.316Z,7.88
2023-03-26T14:06:57.600Z,6.00
2023-03-26T14:09:31.395Z,6.63
2023-03-26T14:14:49.008Z,6.20
2023-03-26T14:17:41.485Z,6.53
2023-03-26T14:26:43.577Z,7.15
2023-03-26T14:29:56.514Z,6.57
2023-03-26T14:33:27.328Z,8.80
2023-03-26T14:36:13.962Z,7.05
2023-03-26T14:39:16.867Z,6.80
2023-03-26T14:41:56.153Z,12.25
2023-03-26T14:44:51.425Z,9.68
2023-03-26T14:51:29.060Z,7.55
2023-03-26T14:54:06.907Z,7.80
2023-03-26T14:58:13.499Z,9.13
2023-03-26T15:19:19.660Z,7.93
2023-03-26T15:40:00.097Z,4.88
2023-03-26T15:42:38.160Z,6.25
2023-03-26T15:46:07.743Z,8.27
2023-03-26T15:49:09.400Z,6.13
2023-03-26T16:02:06.161Z,5.03
2023-03-26T16:24:01.501Z,7.03
2023-03-26T16:37:06.520Z,5.53
2023-03-26T16:44:22.017Z,4.80
2023-03-26T16:46:59.127Z,4.35
2023-03-26T16:50:08.831Z,8.73
2023-03-26T16:52:50.612Z,4.53
2023-03-26T17:03:00.991Z,6.07
2023-03-26T19:25:19.231Z,7.75
2023-03-26T19:28:43.287Z,5.13
2023-03-26T19:31:44.192Z,5.38
2023-03-26T20:10:49.380Z,12.02
2023-03-26T20:24:24.005Z,12.65
2023-03-26T20:27:09.605Z,18.02
2023-03-26T20:29:36.741Z,15.93
2023-03-26T20:32:19.699Z,26.10
2023-03-26T20:43:43.759Z,35.95
2023-03-26T20:46:38.729Z,33.95
2023-03-26T20:56:23.424Z,40.73
2023-03-26T20:59:13.098Z,44.38
2023-03-26T21:01:40.522Z,35.03
2023-03-26T21:10:17.588Z,39.33
2023-03-26T21:13:44.174Z,41.22
2023-03-26T21:18:46.155Z,29.45
2023-03-26T21:21:36.859Z,31.17
2023-03-26T21:24:55.228Z,32.13
2023-03-26T21:31:26.627Z,30.92
2023-03-26T21:36:25.027Z,24.67
2023-03-26T21:38:54.755Z,36.47
2023-03-26T21:44:44.676Z,35.08
2023-03-26T22:02:05.248Z,27.30
2023-03-26T22:11:43.424Z,27.42
2023-03-26T22:35:00.721Z,23.15
2023-03-26T22:37:30.920Z,25.30
2023-03-26T22:57:36.188Z,25.08
2023-03-26T23:00:28.509Z,19.40
2023-03-26T23:03:00.959Z,19.58
2023-03-26T23:42:28.934Z,16.60
2023-03-26T23:44:57.092Z,16.95
